createdAt,value
2023-02-11T00:00:58.867Z,99500.34
2023-02-11T00:03:31.242Z,99495.34
2023-02-11T00:06:02.919Z,99498.88
2023-02-11T00:08:33.997Z,99495.38
2023-02-11T00:11:04.535Z,99493.84
2023-02-11T00:13:34.081Z,99491.53
2023-02-11T00:16:09.875Z,99492.16
2023-02-11T00:18:42.175Z,99492.44
2023-02-11T00:21:15.759Z,99491.78
2023-02-11T00:23:47.866Z,99489.44
2023-02-11T00:26:20.614Z,99491.59
2023-02-11T00:28:52.257Z,99486.84
2023-02-11T00:31:24.279Z,99485.47
2023-02-11T00:33:56.392Z,99481.47
2023-02-11T00:36:29.222Z,99478.97
2023-02-11T00:39:00.585Z,99476.16
2023-02-11T00:41:31.265Z,99478.78
2023-02-11T00:44:02.336Z,99476.59
2023-02-11T00:46:33.563Z,99476.75
2023-02-11T00:49:05.872Z,99472.00
2023-02-11T00:51:36.401Z,99470.13
2023-02-11T00:54:07.742Z,99470.59
2023-02-11T00:56:37.893Z,99466.69
2023-02-11T00:59:08.424Z,99462.78
2023-02-11T01:01:39.634Z,99458.31
2023-02-11T01:04:11.698Z,99452.66
2023-02-11T01:06:41.848Z,99462.59
2023-02-11T01:09:13.684Z,99446.59
2023-02-11T01:11:44.266Z,99442.38
2023-02-11T01:14:15.262Z,99442.06
2023-02-11T01:16:46.556Z,99443.41
2023-02-11T01:19:17.848Z,99433.72
2023-02-11T01:21:48.668Z,99424.66
2023-02-11T01:24:19.485Z,99413.53
2023-02-11T01:26:49.676Z,99408.59
2023-02-11T01:29:19.696Z,99402.25
2023-02-11T01:31:50.124Z,99396.41
2023-02-11T01:34:21.995Z,99403.81
2023-02-11T01:36:52.480Z,99412.09
2023-02-11T01:39:23.295Z,99395.09
2023-02-11T01:41:54.161Z,99398.16
2023-02-11T01:44:31.188Z,99399.94
2023-02-11T01:47:05.344Z,99398.97
2023-02-11T01:49:40.677Z,99388.16
2023-02-11T01:52:13.813Z,99386.28
2023-02-11T01:55:03.643Z,99386.94
2023-02-11T01:57:36.716Z,99382.53
2023-02-11T02:00:13.399Z,99382.56
2023-02-11T02:02:50.911Z,99386.22
2023-02-11T02:05:30.762Z,99380.38
2023-02-11T02:08:07.595Z,99382.50
2023-02-11T02:10:38.821Z,99386.06
2023-02-11T02:13:09.756Z,99377.38
2023-02-11T02:15:40.736Z,99370.13
2023-02-11T02:18:21.230Z,99375.22
2023-02-11T02:21:33.305Z,99374.59
2023-02-11T02:24:37.826Z,99371.59
2023-02-11T02:27:41.543Z,99372.63
2023-02-11T02:30:43.631Z,99358.50
2023-02-11T02:33:40.909Z,99359.47
2023-02-11T02:36:18.812Z,99353.97
2023-02-11T02:38:56.090Z,99353.81
2023-02-11T02:41:30.834Z,99346.47
2023-02-11T02:44:02.020Z,99350.28
2023-02-11T02:46:35.044Z,99352.53
2023-02-11T02:49:12.010Z,99351.91
2023-02-11T02:51:54.048Z,99340.38
2023-02-11T02:54:39.443Z,99345.63
2023-02-11T02:57:19.635Z,99344.97
2023-02-11T03:00:00.172Z,99340.25
2023-02-11T03:02:36.503Z,99348.66
2023-02-11T03:05:12.342Z,99334.34
2023-02-11T03:07:47.066Z,99345.97
2023-02-11T03:10:21.550Z,99337.72
2023-02-11T03:12:55.218Z,99338.63
2023-02-11T03:15:30.313Z,99339.75
2023-02-11T03:18:04.916Z,99335.25
2023-02-11T03:20:39.141Z,99340.31
2023-02-11T03:23:16.773Z,99340.56
2023-02-11T03:25:51.159Z,99343.09
2023-02-11T03:28:29.843Z,99334.06
2023-02-11T03:31:09.350Z,99329.66
2023-02-11T03:33:43.834Z,99334.34
2023-02-11T03:36:20.874Z,99328.22
2023-02-11T03:38:53.207Z,99329.28
2023-02-11T03:41:25.738Z,99317.94
2023-02-11T03:43:58.481Z,99311.38
2023-02-11T03:46:33.320Z,99314.75
2023-02-11T03:49:10.206Z,99308.28
2023-02-11T03:51:43.195Z,99303.47
2023-02-11T03:54:17.631Z,99307.88
2023-02-11T03:56:53.880Z,99304.31
2023-02-11T03:59:24.729Z,99306.19
2023-02-11T04:01:55.535Z,99302.22
2023-02-11T04:04:25.478Z,99309.94
2023-02-11T04:07:00.595Z,99302.16
2023-02-11T04:09:31.527Z,99301.00
2023-02-11T04:12:01.671Z,99306.34
2023-02-11T04:14:32.366Z,99304.13
2023-02-11T04:17:03.435Z,99304.09
2023-02-11T04:19:34.488Z,99295.94
2023-02-11T04:22:07.243Z,99295.19
2023-02-11T04:24:38.354Z,99293.97
2023-02-11T04:27:08.993Z,99294.94
2023-02-11T04:29:39.857Z,99290.78
2023-02-11T04:32:11.004Z,99293.53
2023-02-11T04:34:42.597Z,99281.22
2023-02-11T04:37:14.693Z,99277.56
2023-02-11T04:39:45.250Z,99275.84
2023-02-11T04:42:16.613Z,99275.81
2023-02-11T04:44:47.012Z,99277.84
2023-02-11T04:47:17.665Z,99267.72
2023-02-11T04:49:49.524Z,99262.06
2023-02-11T04:52:23.011Z,99265.09
2023-02-11T04:54:53.860Z,99257.09
2023-02-11T04:57:24.717Z,99259.13
2023-02-11T04:59:55.920Z,99259.00
2023-02-11T05:02:26.306Z,99255.75
2023-02-11T05:04:56.436Z,99245.78
2023-02-11T05:07:28.720Z,99244.63
2023-02-11T05:09:59.424Z,99247.19
2023-02-11T05:12:30.548Z,99238.22
2023-02-11T05:15:01.217Z,99246.25
2023-02-11T05:17:31.611Z,99241.63
2023-02-11T05:20:02.648Z,99243.97
2023-02-11T05:22:35.523Z,99254.53
2023-02-11T05:25:06.312Z,99245.56
2023-02-11T05:27:37.023Z,99251.63
2023-02-11T05:30:09.048Z,99246.78
2023-02-11T05:32:40.482Z,99251.00
2023-02-11T05:35:11.360Z,99250.44
2023-02-11T05:37:46.046Z,99241.84
2023-02-11T05:40:17.257Z,99241.53
2023-02-11T05:42:48.473Z,99255.63
2023-02-11T05:45:21.082Z,99253.94
2023-02-11T05:47:51.273Z,99248.22
2023-02-11T05:50:21.879Z,99255.28
2023-02-11T05:52:54.252Z,99255.75
2023-02-11T05:55:25.239Z,99243.19
2023-02-11T05:57:54.900Z,99243.38
2023-02-11T06:00:25.826Z,99250.34
2023-02-11T06:02:56.934Z,99250.97
2023-02-11T06:05:28.816Z,99253.03
2023-02-11T06:08:03.493Z,99248.91
2023-02-11T06:10:34.103Z,99242.66
2023-02-11T06:13:04.981Z,99237.53
2023-02-11T06:15:35.712Z,99234.81
2023-02-11T06:18:06.804Z,99232.25
2023-02-11T06:20:41.107Z,99232.44
2023-02-11T06:23:13.412Z,99239.41
2023-02-11T06:25:43.457Z,99229.91
2023-02-11T06:28:14.073Z,99233.13
2023-02-11T06:30:45.598Z,99226.59
2023-02-11T06:33:17.030Z,99220.91
2023-02-11T06:35:47.638Z,99220.88
2023-02-11T06:38:21.938Z,99225.09
2023-02-11T06:40:53.613Z,99223.97
2023-02-11T06:43:24.028Z,99226.47
2023-02-11T06:45:56.351Z,99219.91
2023-02-11T06:48:28.364Z,99220.88
2023-02-11T06:51:05.464Z,99224.75
2023-02-11T06:53:40.694Z,99228.88
2023-02-11T06:56:13.592Z,99229.25
2023-02-11T06:58:44.003Z,99223.09
2023-02-11T07:01:16.636Z,99227.84
2023-02-11T07:03:47.650Z,99224.31
2023-02-11T07:06:19.934Z,99227.63
2023-02-11T07:08:51.965Z,99220.81
2023-02-11T07:11:25.076Z,99223.91
2023-02-11T07:13:56.647Z,99220.31
2023-02-11T07:16:26.949Z,99229.75
2023-02-11T07:18:56.820Z,99233.75
2023-02-11T07:21:27.206Z,99227.47
2023-02-11T07:23:59.379Z,99220.28
2023-02-11T07:26:30.572Z,99228.41
2023-02-11T07:29:01.067Z,99226.28
2023-02-11T07:31:32.150Z,99231.34
2023-02-11T07:34:03.663Z,99231.59
2023-02-11T07:36:34.233Z,99224.97
2023-02-11T07:39:06.003Z,99229.97
2023-02-11T07:41:38.027Z,99226.41
2023-02-11T07:44:08.689Z,99225.09
2023-02-11T07:46:43.646Z,99230.16
2023-02-11T07:49:14.246Z,99228.19
2023-02-11T07:51:44.848Z,99227.50
2023-02-11T07:54:16.683Z,99221.44
2023-02-11T07:56:46.982Z,99214.81
2023-02-11T07:59:17.850Z,99219.38
2023-02-11T08:01:48.112Z,99218.78
2023-02-11T08:04:18.759Z,99217.56
2023-02-11T08:06:49.740Z,99212.78
2023-02-11T08:09:21.735Z,99217.56
2023-02-11T08:11:52.154Z,99212.00
2023-02-11T08:14:27.733Z,99216.63
2023-02-11T08:16:59.869Z,99220.97
2023-02-11T08:19:34.828Z,99216.81
2023-02-11T08:22:07.436Z,99218.09
2023-02-11T08:24:40.155Z,99234.31
2023-02-11T08:27:13.921Z,99231.69
2023-02-11T08:29:45.450Z,99226.97
2023-02-11T08:32:16.119Z,99214.41
2023-02-11T08:34:46.327Z,99217.22
2023-02-11T08:37:17.919Z,99218.41
2023-02-11T08:39:50.453Z,99224.31
2023-02-11T08:42:21.000Z,99232.09
2023-02-11T08:44:51.672Z,99216.63
2023-02-11T08:47:22.233Z,99221.25
2023-02-11T08:49:52.464Z,99220.28
2023-02-11T08:52:23.090Z,99221.97
2023-02-11T08:54:54.768Z,99220.56
2023-02-11T08:57:25.161Z,99217.91
2023-02-11T08:59:55.717Z,99221.03
2023-02-11T09:02:26.325Z,99219.50
2023-02-11T09:04:56.531Z,99210.81
2023-02-11T09:07:26.430Z,99205.84
2023-02-11T09:09:58.541Z,99200.19
2023-02-11T09:12:28.915Z,99198.78
2023-02-11T09:14:59.129Z,99187.00
2023-02-11T09:17:29.656Z,99198.44
2023-02-11T09:20:00.316Z,99203.75
2023-02-11T09:22:30.881Z,99198.50
2023-02-11T09:25:02.587Z,99194.19
2023-02-11T09:27:35.765Z,99206.97
2023-02-11T09:30:06.313Z,99200.41
2023-02-11T09:32:36.771Z,99192.06
2023-02-11T09:35:07.670Z,99187.03
2023-02-11T09:37:38.601Z,99183.53
2023-02-11T09:40:12.329Z,99185.00
2023-02-11T09:42:51.742Z,99184.34
2023-02-11T09:45:23.155Z,99185.75
2023-02-11T09:47:56.667Z,99185.09
2023-02-11T09:50:30.271Z,99180.03
2023-02-11T09:53:04.505Z,99169.22
2023-02-11T09:55:39.708Z,99161.56
2023-02-11T09:58:14.454Z,99168.41
2023-02-11T10:00:49.332Z,99161.97
2023-02-11T10:03:37.513Z,99157.72
2023-02-11T10:06:31.008Z,99147.63
2023-02-11T10:09:07.189Z,99150.41
2023-02-11T10:11:48.768Z,99153.84
2023-02-11T10:14:36.203Z,99155.84
2023-02-11T10:17:13.210Z,99141.31
2023-02-11T10:19:56.814Z,99144.00
2023-02-11T10:22:36.504Z,99135.75
2023-02-11T10:25:19.679Z,99128.84
2023-02-11T10:27:53.114Z,99117.78
2023-02-11T10:30:29.093Z,99123.44
2023-02-11T10:33:04.524Z,99113.22
2023-02-11T10:35:36.108Z,99118.38
2023-02-11T10:38:06.114Z,99114.13
2023-02-11T10:40:36.981Z,99102.09
2023-02-11T10:43:13.476Z,99102.06
2023-02-11T10:45:46.203Z,99103.56
2023-02-11T10:48:39.152Z,99091.84
2023-02-11T10:51:20.313Z,99086.91
2023-02-11T10:53:51.669Z,99097.13
2023-02-11T10:56:27.378Z,99088.00
2023-02-11T10:59:01.569Z,99088.09
2023-02-11T11:01:45.889Z,99079.94
2023-02-11T11:04:42.629Z,99068.13
2023-02-11T11:07:16.380Z,99066.44
2023-02-11T11:09:52.345Z,99064.16
2023-02-11T11:12:34.046Z,99068.34
2023-02-11T11:15:22.183Z,99060.38
2023-02-11T11:17:53.106Z,99050.38
2023-02-11T11:20:28.711Z,99047.16
2023-02-11T11:23:12.745Z,99042.47
2023-02-11T11:25:44.776Z,99030.44
2023-02-11T11:28:24.371Z,99031.41
2023-02-11T11:30:57.205Z,99032.75
2023-02-11T11:33:29.242Z,99018.59
2023-02-11T11:36:03.775Z,99017.19
2023-02-11T11:38:35.058Z,99021.16
2023-02-11T11:41:32.953Z,99010.38
2023-02-11T11:44:10.331Z,99000.31
2023-02-11T11:46:44.051Z,98995.63
2023-02-11T11:49:27.400Z,98991.13
2023-02-11T11:52:05.169Z,98995.50
2023-02-11T11:54:37.410Z,98995.94
2023-02-11T11:57:15.014Z,98997.88
2023-02-11T11:59:45.085Z,98992.75
2023-02-11T12:02:37.405Z,99001.84
2023-02-11T12:05:12.458Z,99002.41
2023-02-11T12:07:51.988Z,98989.00
2023-02-11T12:10:49.245Z,98978.06
2023-02-11T12:13:28.448Z,98977.63
2023-02-11T12:16:07.302Z,98968.38
2023-02-11T12:18:49.328Z,98951.03
2023-02-11T12:21:30.742Z,98953.97
2023-02-11T12:24:14.560Z,98951.19
2023-02-11T12:26:48.200Z,98939.13
2023-02-11T12:29:26.170Z,98945.78
2023-02-11T12:32:12.330Z,98938.56
2023-02-11T12:35:00.742Z,98921.75
2023-02-11T12:37:42.906Z,98913.50
2023-02-11T12:40:19.987Z,98903.47
2023-02-11T12:43:19.936Z,98900.81
2023-02-11T12:46:15.654Z,98900.69
2023-02-11T12:49:06.532Z,98896.50
2023-02-11T12:52:00.025Z,98900.06
2023-02-11T12:54:32.356Z,98888.25
2023-02-11T12:57:06.232Z,98878.09
2023-02-11T12:59:43.318Z,98871.25
2023-02-11T13:02:26.901Z,98872.28
2023-02-11T13:05:01.984Z,98858.84
2023-02-11T13:07:36.747Z,98866.31
2023-02-11T13:10:11.496Z,98860.00
2023-02-11T13:13:01.335Z,98853.44
2023-02-11T13:15:31.781Z,98849.66
2023-02-11T13:18:05.080Z,98849.03
2023-02-11T13:20:39.820Z,98848.78
2023-02-11T13:23:29.972Z,98847.47
2023-02-11T13:26:07.690Z,98835.38
2023-02-11T13:28:43.805Z,98832.34
2023-02-11T13:31:17.224Z,98836.84
2023-02-11T13:33:50.615Z,98837.72
2023-02-11T13:36:25.882Z,98835.66
2023-02-11T13:39:22.127Z,98841.66
2023-02-11T13:41:53.259Z,98838.63
2023-02-11T13:44:30.592Z,98841.50
2023-02-11T13:47:03.457Z,98836.72
2023-02-11T13:49:36.948Z,98831.19
2023-02-11T13:52:17.622Z,98835.63
2023-02-11T13:54:53.313Z,98838.59
2023-02-11T13:57:41.638Z,98841.91
2023-02-11T14:00:52.043Z,98859.84
2023-02-11T14:03:50.698Z,98861.03
2023-02-11T14:06:44.236Z,98842.88
2023-02-11T14:09:37.929Z,98844.75
2023-02-11T14:12:29.732Z,98829.84
2023-02-11T14:15:23.309Z,98849.06
2023-02-11T14:17:53.843Z,98838.91
2023-02-11T14:20:39.895Z,98842.78
2023-02-11T14:23:18.673Z,98844.97
2023-02-11T14:25:58.306Z,98843.88
2023-02-11T14:28:34.602Z,98842.50
2023-02-11T14:31:11.802Z,98849.16
2023-02-11T14:34:39.975Z,98842.84
2023-02-11T14:37:21.333Z,98838.41
2023-02-11T14:40:05.672Z,98840.53
2023-02-11T14:42:37.387Z,98837.66
2023-02-11T14:45:11.849Z,98841.78
2023-02-11T14:47:44.679Z,98829.69
2023-02-11T14:50:19.892Z,98828.59
2023-02-11T14:52:51.606Z,98835.72
2023-02-11T14:55:31.353Z,98842.97
2023-02-11T14:58:13.476Z,98841.94
2023-02-11T15:00:53.497Z,98831.66
2023-02-11T15:03:35.589Z,98836.56
2023-02-11T15:06:09.897Z,98835.09
2023-02-11T15:08:46.985Z,98836.00
2023-02-11T15:11:19.659Z,98834.09
2023-02-11T15:13:52.535Z,98832.72
2023-02-11T15:16:27.084Z,98831.75
2023-02-11T15:18:59.528Z,98835.63
2023-02-11T15:21:33.137Z,98834.72
2023-02-11T15:24:06.701Z,98837.06
2023-02-11T15:26:37.206Z,98833.47
2023-02-11T15:29:20.000Z,98834.94
2023-02-11T15:32:08.171Z,98833.13
2023-02-11T15:34:39.988Z,98840.66
2023-02-11T15:37:12.301Z,98836.75
2023-02-11T15:39:43.361Z,98845.06
2023-02-11T15:42:25.694Z,98846.31
2023-02-11T15:45:13.693Z,98858.81
2023-02-11T15:47:53.422Z,98850.06
2023-02-11T15:50:26.310Z,98851.84
2023-02-11T15:52:57.071Z,98845.59
2023-02-11T15:55:30.514Z,98853.44
2023-02-11T15:58:02.748Z,98850.13
2023-02-11T16:00:36.107Z,98853.72
2023-02-11T16:03:07.764Z,98857.78
2023-02-11T16:05:40.849Z,98849.41
2023-02-11T16:08:24.707Z,98850.63
2023-02-11T16:11:00.325Z,98855.81
2023-02-11T16:13:34.827Z,98854.88
2023-02-11T16:16:06.902Z,98851.59
2023-02-11T16:18:40.443Z,98847.50
2023-02-11T16:21:18.179Z,98860.72
2023-02-11T16:23:55.195Z,98862.72
2023-02-11T16:26:31.826Z,98863.06
2023-02-11T16:29:08.021Z,98854.75
2023-02-11T16:31:40.304Z,98854.38
2023-02-11T16:34:18.126Z,98871.47
2023-02-11T16:36:49.380Z,98869.59
2023-02-11T16:39:21.998Z,98863.88
2023-02-11T16:41:54.474Z,98860.13
2023-02-11T16:44:25.741Z,98850.53
2023-02-11T16:46:58.595Z,98847.97
2023-02-11T16:49:34.729Z,98847.06
2023-02-11T16:52:09.760Z,98858.19
2023-02-11T16:54:41.256Z,98846.78
2023-02-11T16:57:19.139Z,98846.34
2023-02-11T16:59:50.113Z,98849.50
2023-02-11T17:02:24.219Z,98840.22
2023-02-11T17:05:00.170Z,98838.38
2023-02-11T17:07:32.171Z,98833.03
2023-02-11T17:10:02.711Z,98838.75
2023-02-11T17:12:33.534Z,98833.84
2023-02-11T17:15:06.026Z,98851.97
2023-02-11T17:17:37.161Z,98841.22
2023-02-11T17:20:13.484Z,98836.75
2023-02-11T17:22:43.791Z,98837.75
2023-02-11T17:25:14.738Z,98837.84
2023-02-11T17:27:46.190Z,98829.03
2023-02-11T17:30:18.699Z,98820.19
2023-02-11T17:32:49.955Z,98828.91
2023-02-11T17:35:21.949Z,98833.72
2023-02-11T17:37:54.580Z,98835.16
2023-02-11T17:40:25.160Z,98828.13
2023-02-11T17:42:54.975Z,98835.84
2023-02-11T17:45:26.711Z,98839.19
2023-02-11T17:47:58.267Z,98841.66
2023-02-11T17:50:30.842Z,98848.78
2023-02-11T17:53:02.290Z,98846.91
2023-02-11T17:55:38.577Z,98845.78
2023-02-11T17:58:09.851Z,98836.91
2023-02-11T18:00:41.517Z,98837.59
2023-02-11T18:03:13.749Z,98841.72
2023-02-11T18:05:47.980Z,98842.00
2023-02-11T18:08:20.783Z,98848.47
2023-02-11T18:10:50.631Z,98853.69
2023-02-11T18:13:21.103Z,98860.53
2023-02-11T18:15:51.705Z,98863.25
2023-02-11T18:18:22.349Z,98867.97
2023-02-11T18:21:01.187Z,98878.91
2023-02-11T18:23:33.176Z,98870.69
2023-02-11T18:26:04.712Z,98860.81
2023-02-11T18:28:35.997Z,98853.88
2023-02-11T18:31:09.722Z,98860.44
2023-02-11T18:33:42.255Z,98852.78
2023-02-11T18:36:16.997Z,98840.97
2023-02-11T18:38:47.720Z,98853.09
2023-02-11T18:41:17.936Z,98861.03
2023-02-11T18:43:48.634Z,98856.13
2023-02-11T18:46:20.359Z,98855.06
2023-02-11T18:48:56.055Z,98855.47
2023-02-11T18:51:32.156Z,98857.22
2023-02-11T18:54:03.126Z,98872.97
2023-02-11T18:56:33.415Z,98866.38
2023-02-11T18:59:05.200Z,98871.47
2023-02-11T19:01:36.317Z,98875.28
2023-02-11T19:04:07.772Z,98877.09
2023-02-11T19:06:39.884Z,98886.25
2023-02-11T19:09:12.054Z,98880.69
2023-02-11T19:11:51.361Z,98873.94
2023-02-11T19:14:24.940Z,98879.56
2023-02-11T19:16:57.922Z,98888.31
2023-02-11T19:19:30.904Z,98890.00
2023-02-11T19:22:03.954Z,98893.13
2023-02-11T19:24:37.919Z,98887.75
2023-02-11T19:27:08.775Z,98891.06
2023-02-11T19:29:39.306Z,98884.72
2023-02-11T19:32:12.198Z,98893.59
2023-02-11T19:34:43.709Z,98906.69
2023-02-11T19:37:16.159Z,98900.50
2023-02-11T19:39:47.294Z,98920.69
2023-02-11T19:42:17.915Z,98912.13
2023-02-11T19:44:47.711Z,98913.78
2023-02-11T19:47:18.322Z,98911.22
2023-02-11T19:49:48.779Z,98904.09
2023-02-11T19:52:21.361Z,98915.81
2023-02-11T19:54:55.455Z,98902.38
2023-02-11T19:57:26.120Z,98889.53
2023-02-11T19:59:57.364Z,98910.91
2023-02-11T20:02:28.774Z,98904.66
2023-02-11T20:04:59.450Z,98891.06
2023-02-11T20:07:31.274Z,98909.66
2023-02-11T20:10:01.549Z,98907.66
2023-02-11T20:12:31.594Z,98918.50
2023-02-11T20:15:01.743Z,98907.75
2023-02-11T20:17:32.420Z,98905.81
2023-02-11T20:20:02.747Z,98905.81
2023-02-11T20:22:37.112Z,98903.94
2023-02-11T20:25:08.770Z,98890.00
2023-02-11T20:27:38.930Z,98909.66
2023-02-11T20:30:11.131Z,98907.06
2023-02-11T20:32:40.927Z,98911.50
2023-02-11T20:35:12.712Z,98910.09
2023-02-11T20:37:44.319Z,98904.09
2023-02-11T20:40:16.200Z,98904.22
2023-02-11T20:42:46.739Z,98899.84
2023-02-11T20:45:16.786Z,98912.00
2023-02-11T20:47:47.385Z,98910.59
2023-02-11T20:50:17.850Z,98915.59
2023-02-11T20:52:50.332Z,98902.19
2023-02-11T20:55:20.989Z,98916.41
2023-02-11T20:57:51.102Z,98900.69
2023-02-11T21:00:22.610Z,98910.78
2023-02-11T21:02:55.698Z,98908.78
2023-02-11T21:05:26.406Z,98895.63
2023-02-11T21:07:59.436Z,98899.44
2023-02-11T21:10:29.521Z,98899.25
2023-02-11T21:13:03.127Z,98899.25
2023-02-11T21:15:34.567Z,98902.97
2023-02-11T21:18:04.034Z,98901.44
2023-02-11T21:20:34.082Z,98897.38
2023-02-11T21:23:06.448Z,98894.22
2023-02-11T21:25:38.474Z,98888.72
2023-02-11T21:28:10.165Z,98894.03
2023-02-11T21:30:41.609Z,98898.66
2023-02-11T21:33:12.624Z,98885.56
2023-02-11T21:35:43.672Z,98898.88
2023-02-11T21:38:16.498Z,98899.38
2023-02-11T21:40:47.328Z,98905.25
2023-02-11T21:43:19.935Z,98914.06
2023-02-11T21:45:52.081Z,98910.81
2023-02-11T21:48:24.208Z,98896.47
2023-02-11T21:50:56.710Z,98913.69
2023-02-11T21:53:31.432Z,98920.72
2023-02-11T21:56:11.503Z,98915.78
2023-02-11T21:58:41.975Z,98926.31
2023-02-11T22:01:19.334Z,98920.44
2023-02-11T22:03:50.151Z,98923.22
2023-02-11T22:06:23.089Z,98924.72
2023-02-11T22:08:55.502Z,98924.94
2023-02-11T22:11:27.558Z,98923.34
2023-02-11T22:13:59.540Z,98922.16
2023-02-11T22:16:30.416Z,98924.88
2023-02-11T22:19:03.396Z,98932.78
2023-02-11T22:21:33.830Z,98924.34
2023-02-11T22:24:07.111Z,98930.03
2023-02-11T22:26:37.101Z,98918.50
2023-02-11T22:29:07.374Z,98927.91
2023-02-11T22:31:39.007Z,98926.25
2023-02-11T22:34:10.860Z,98922.03
2023-02-11T22:36:45.453Z,98930.44
2023-02-11T22:39:19.661Z,98923.69
2023-02-11T22:41:49.672Z,98942.91
2023-02-11T22:44:21.122Z,98932.91
2023-02-11T22:46:51.677Z,98936.00
2023-02-11T22:49:23.173Z,98945.69
2023-02-11T22:51:53.839Z,98938.22
2023-02-11T22:54:26.136Z,98933.66
2023-02-11T22:56:57.070Z,98936.06
2023-02-11T22:59:27.986Z,98939.56
2023-02-11T23:01:59.719Z,98944.94
2023-02-11T23:04:31.153Z,98946.72
2023-02-11T23:07:01.610Z,98942.31
2023-02-11T23:09:33.602Z,98940.72
2023-02-11T23:12:03.557Z,98947.38
2023-02-11T23:14:34.555Z,98934.44
2023-02-11T23:17:05.695Z,98948.38
2023-02-11T23:19:35.300Z,98954.72
2023-02-11T23:22:06.134Z,98959.06
2023-02-11T23:24:38.134Z,98958.06
2023-02-11T23:27:09.179Z,98947.75
2023-02-11T23:29:39.256Z,98954.03
2023-02-11T23:32:09.997Z,98952.47
2023-02-11T23:34:39.705Z,98956.44
2023-02-11T23:37:10.473Z,98965.03
2023-02-11T23:39:42.443Z,98958.38
2023-02-11T23:42:12.459Z,98958.41
2023-02-11T23:44:43.135Z,98970.06
2023-02-11T23:47:14.609Z,98974.59
2023-02-11T23:49:45.152Z,98977.44
2023-02-11T23:52:16.319Z,98998.84
2023-02-11T23:54:48.928Z,98992.00
2023-02-11T23:57:19.420Z,98992.63
2023-02-11T23:59:51.460Z,98994.59
